Time;durP1;ratioP1;P1;durP2;ratioP2;P2;SDS_P1;SDS_P2;PMS_P1;PMS_P2;Temp;Humidity;BMP_temperature;BMP_pressure;BME280_temperature;BME280_humidity;BME280_pressure;Samples;Min_cycle;Max_cycle;Signal;HPM_P1;HPM_P2
2020/12/18 00:00:45;;;;;;;6.20;4.63;;;11.20;95.10;;;;;;5031024;28;20412;-73
2020/12/18 00:03:11;;;;;;;4.13;3.73;;;11.20;95.20;;;;;;5015365;28;20280;-73
2020/12/18 00:05:42;;;;;;;4.90;4.43;;;11.20;95.50;;;;;;5016720;28;20190;-73
2020/12/18 00:08:09;;;;;;;6.00;4.10;;;11.10;95.70;;;;;;5019557;28;20847;-73
2020/12/18 00:10:38;;;;;;;4.73;4.20;;;11.20;95.70;;;;;;5015498;28;21014;-73
2020/12/18 00:13:04;;;;;;;4.00;3.70;;;11.20;95.70;;;;;;5015619;28;20405;-73
2020/12/18 00:15:29;;;;;;;3.87;3.57;;;11.20;95.90;;;;;;5014551;28;20505;-73
2020/12/18 00:17:55;;;;;;;4.17;3.83;;;11.20;96.20;;;;;;5015377;28;20904;-73
2020/12/18 00:20:21;;;;;;;5.33;4.80;;;11.20;96.40;;;;;;5014130;28;20181;-73
2020/12/18 00:22:48;;;;;;;4.97;4.10;;;11.30;96.60;;;;;;5015708;28;20193;-73
2020/12/18 00:25:14;;;;;;;4.67;4.30;;;11.30;96.40;;;;;;5014531;28;20439;-73
2020/12/18 00:27:40;;;;;;;5.20;4.70;;;11.40;96.20;;;;;;5014957;28;20422;-72
2020/12/18 00:30:08;;;;;;;6.03;4.93;;;11.50;96.00;;;;;;5015194;28;20464;-73
2020/12/18 00:32:35;;;;;;;4.97;4.00;;;11.50;95.80;;;;;;5015227;28;20406;-73
2020/12/18 00:35:01;;;;;;;4.00;3.60;;;11.50;95.90;;;;;;5014796;28;20455;-70
2020/12/18 00:37:26;;;;;;;5.30;4.03;;;11.50;95.80;;;;;;5031152;28;20408;-71
2020/12/18 00:39:52;;;;;;;5.13;3.87;;;11.50;95.80;;;;;;5035085;28;20264;-71
2020/12/18 00:42:18;;;;;;;6.63;4.30;;;11.50;95.80;;;;;;5021646;28;20193;-71
2020/12/18 00:44:44;;;;;;;6.33;3.77;;;11.60;95.80;;;;;;5014822;28;20171;-73
2020/12/18 00:47:09;;;;;;;6.67;3.70;;;11.60;95.80;;;;;;5023910;28;20182;-73
2020/12/18 00:49:35;;;;;;;5.30;3.90;;;11.60;95.80;;;;;;5014952;28;20320;-73
2020/12/18 00:52:01;;;;;;;4.17;3.70;;;11.70;95.80;;;;;;5015094;28;20179;-73
2020/12/18 00:54:26;;;;;;;6.10;4.70;;;11.70;95.70;;;;;;5013662;28;20189;-73
2020/12/18 00:56:52;;;;;;;4.93;4.50;;;11.70;95.60;;;;;;5014661;28;20179;-73
2020/12/18 00:59:18;;;;;;;4.57;4.17;;;11.70;95.70;;;;;;5014007;28;20254;-73
2020/12/18 01:01:43;;;;;;;5.63;4.00;;;11.70;95.70;;;;;;5014721;28;20214;-73
2020/12/18 01:04:09;;;;;;;4.20;3.80;;;11.70;95.60;;;;;;5014379;28;20629;-74
2020/12/18 01:06:35;;;;;;;5.03;4.60;;;11.80;95.60;;;;;;5014495;28;20240;-72
2020/12/18 01:09:00;;;;;;;6.03;3.80;;;11.80;95.70;;;;;;5014367;28;20225;-73
2020/12/18 01:11:26;;;;;;;6.53;4.00;;;11.70;95.60;;;;;;5013476;28;20289;-72
2020/12/18 01:13:52;;;;;;;5.17;4.23;;;11.70;95.60;;;;;;5014601;28;20181;-72
2020/12/18 01:16:18;;;;;;;4.40;4.10;;;11.70;95.50;;;;;;5016324;28;20173;-73
2020/12/18 01:18:43;;;;;;;4.60;4.17;;;11.70;95.70;;;;;;5034313;28;20178;-72
2020/12/18 01:21:09;;;;;;;6.03;4.90;;;11.80;95.80;;;;;;5033207;28;20185;-74
2020/12/18 01:23:35;;;;;;;4.93;4.50;;;11.70;95.60;;;;;;5026199;28;20201;-72
2020/12/18 01:26:00;;;;;;;5.10;4.63;;;11.80;95.70;;;;;;5019298;28;20257;-73
2020/12/18 01:28:26;;;;;;;6.03;4.50;;;11.80;95.50;;;;;;5032749;28;20178;-71
2020/12/18 01:30:52;;;;;;;4.60;4.30;;;11.80;95.30;;;;;;5032880;28;20213;-71
2020/12/18 01:33:18;;;;;;;6.70;4.90;;;11.60;95.20;;;;;;5032914;28;20700;-71
2020/12/18 01:35:43;;;;;;;5.20;4.70;;;11.60;95.50;;;;;;5033744;28;20243;-71
2020/12/18 01:38:09;;;;;;;5.67;4.87;;;11.60;95.50;;;;;;5033619;28;20182;-72
2020/12/18 01:40:35;;;;;;;5.90;4.80;;;11.50;95.30;;;;;;5033494;28;20184;-71
2020/12/18 01:43:02;;;;;;;5.33;4.83;;;11.30;95.70;;;;;;5033729;28;20887;-71
2020/12/18 01:45:29;;;;;;;4.37;3.93;;;11.30;95.80;;;;;;5032783;28;20181;-71
2020/12/18 01:47:55;;;;;;;4.57;4.17;;;11.30;96.00;;;;;;5030914;28;20491;-71
2020/12/18 01:50:21;;;;;;;6.50;5.13;;;11.40;95.90;;;;;;5019186;28;20456;-71
2020/12/18 01:52:47;;;;;;;4.23;3.80;;;11.40;95.40;;;;;;5033926;28;20409;-70
2020/12/18 01:55:13;;;;;;;4.70;4.30;;;11.40;95.50;;;;;;5013786;28;20485;-72
2020/12/18 01:57:40;;;;;;;4.57;4.17;;;11.40;95.20;;;;;;5014052;28;20210;-70
2020/12/18 02:00:08;;;;;;;4.40;4.10;;;11.40;95.40;;;;;;5013743;28;20426;-71
2020/12/18 02:02:34;;;;;;;5.73;4.40;;;11.40;95.50;;;;;;5014164;28;20473;-71
2020/12/18 02:05:00;;;;;;;5.60;4.33;;;11.40;95.60;;;;;;5013549;28;20764;-71
2020/12/18 02:07:29;;;;;;;5.00;4.60;;;11.40;95.50;;;;;;5029379;28;20416;-71
2020/12/18 02:09:56;;;;;;;4.90;4.50;;;11.50;95.40;;;;;;5033200;28;20247;-71
2020/12/18 02:12:22;;;;;;;4.80;4.37;;;11.50;95.20;;;;;;5031978;28;20506;-71
2020/12/18 02:14:49;;;;;;;5.70;4.57;;;11.40;95.40;;;;;;5032781;28;20469;-71
2020/12/18 02:17:15;;;;;;;4.40;4.10;;;11.40;95.40;;;;;;5031122;28;20412;-71
2020/12/18 02:19:50;;;;;;;4.43;4.13;;;11.50;95.30;;;;;;5031848;28;20781;-71
2020/12/18 02:22:18;;;;;;;4.83;4.43;;;11.50;95.20;;;;;;5032464;28;20473;-72
2020/12/18 02:25:06;;;;;;;4.47;4.10;;;11.50;95.20;;;;;;5015883;28;20421;-71
2020/12/18 02:27:32;;;;;;;4.40;4.00;;;11.50;94.70;;;;;;4997765;28;20452;-71
2020/12/18 02:29:58;;;;;;;4.40;4.00;;;11.50;94.20;;;;;;5013080;28;20479;-71
2020/12/18 02:32:24;;;;;;;4.40;4.10;;;11.50;93.90;;;;;;4997335;28;20421;-71
2020/12/18 02:34:50;;;;;;;5.03;4.10;;;11.40;93.50;;;;;;5012745;28;20229;-71
2020/12/18 02:37:16;;;;;;;4.00;3.70;;;11.30;94.60;;;;;;5012285;28;20894;-72
2020/12/18 02:39:41;;;;;;;5.63;4.00;;;11.30;94.30;;;;;;5017943;28;20461;-71
2020/12/18 02:42:07;;;;;;;6.20;4.53;;;11.30;94.70;;;;;;5009826;28;20641;-69
2020/12/18 02:44:33;;;;;;;4.80;4.30;;;11.20;94.80;;;;;;5001817;28;20180;-71
2020/12/18 02:46:58;;;;;;;4.93;4.30;;;11.20;94.50;;;;;;5012710;28;20643;-71
2020/12/18 02:49:24;;;;;;;4.43;4.17;;;11.10;94.40;;;;;;5012437;28;20312;-71
2020/12/18 02:51:50;;;;;;;4.23;3.80;;;11.10;94.30;;;;;;5019321;28;20209;-71
2020/12/18 02:54:16;;;;;;;3.83;3.63;;;11.00;93.90;;;;;;5031757;28;20232;-71
2020/12/18 02:56:41;;;;;;;5.63;3.60;;;11.00;93.90;;;;;;5015038;28;20209;-71
2020/12/18 02:59:07;;;;;;;4.40;4.10;;;10.90;93.60;;;;;;4992923;28;20183;-72
2020/12/18 03:01:33;;;;;;;7.90;3.60;;;10.90;93.70;;;;;;5010924;28;20233;-71
2020/12/18 03:03:59;;;;;;;4.53;4.13;;;10.80;93.60;;;;;;5012009;28;20510;-71
2020/12/18 03:06:25;;;;;;;4.93;3.73;;;10.80;94.00;;;;;;5010214;28;20464;-71
2020/12/18 03:08:51;;;;;;;4.17;3.83;;;10.70;94.20;;;;;;5007969;28;20183;-70
2020/12/18 03:11:17;;;;;;;5.27;4.10;;;10.60;94.10;;;;;;5010437;28;20417;-71
2020/12/18 03:13:47;;;;;;;5.70;4.20;;;10.60;94.10;;;;;;5003641;28;20428;-74
2020/12/18 03:16:13;;;;;;;4.63;4.23;;;10.50;94.60;;;;;;5005680;28;20176;-74
2020/12/18 03:18:39;;;;;;;5.30;4.50;;;10.50;94.70;;;;;;5010849;28;20414;-72
2020/12/18 03:21:05;;;;;;;5.17;4.80;;;10.50;95.00;;;;;;5011521;28;20935;-72
2020/12/18 03:23:31;;;;;;;4.73;4.33;;;10.50;94.80;;;;;;5007359;28;21251;-74
2020/12/18 03:25:57;;;;;;;6.10;5.50;;;10.60;94.50;;;;;;5010078;28;20548;-72
2020/12/18 03:28:23;;;;;;;8.70;5.30;;;10.60;94.70;;;;;;5011298;28;20412;-72
2020/12/18 03:30:49;;;;;;;5.57;5.07;;;10.60;94.60;;;;;;5012326;28;20212;-72
2020/12/18 03:33:15;;;;;;;5.13;4.63;;;10.60;94.50;;;;;;5011195;28;20461;-73
2020/12/18 03:35:41;;;;;;;4.80;4.50;;;10.60;94.80;;;;;;5010790;28;20176;-72
2020/12/18 03:38:06;;;;;;;4.70;4.40;;;10.60;94.60;;;;;;5011038;28;20432;-72
2020/12/18 03:40:32;;;;;;;7.07;5.10;;;10.60;94.80;;;;;;5011477;28;20223;-72
2020/12/18 03:42:58;;;;;;;6.20;5.37;;;10.50;94.50;;;;;;5012278;28;20175;-72
2020/12/18 03:45:24;;;;;;;6.23;4.50;;;10.50;94.60;;;;;;5011172;28;20185;-72
2020/12/18 03:47:49;;;;;;;6.03;5.20;;;10.50;94.30;;;;;;5012168;28;20173;-72
2020/12/18 03:50:15;;;;;;;6.20;4.90;;;10.50;94.50;;;;;;5031238;28;20549;-73
2020/12/18 03:52:41;;;;;;;4.73;4.43;;;10.50;94.30;;;;;;5031235;28;20194;-72
2020/12/18 03:55:06;;;;;;;5.17;4.77;;;10.50;94.70;;;;;;5031513;28;20187;-72
2020/12/18 03:57:32;;;;;;;4.97;4.57;;;10.50;94.40;;;;;;5014906;28;20569;-72
2020/12/18 03:59:58;;;;;;;4.17;3.87;;;10.50;95.20;;;;;;5025343;28;20274;-69
2020/12/18 04:02:24;;;;;;;4.57;4.30;;;10.50;94.90;;;;;;5031279;28;20180;-68
2020/12/18 04:04:50;;;;;;;7.47;5.60;;;10.50;94.90;;;;;;5031772;28;20226;-68
2020/12/18 04:07:17;;;;;;;4.87;4.47;;;10.50;95.10;;;;;;5015243;28;20207;-70
2020/12/18 04:09:43;;;;;;;5.20;4.70;;;10.50;95.00;;;;;;5011746;28;20458;-67
2020/12/18 04:12:10;;;;;;;5.67;5.27;;;10.40;95.00;;;;;;5011971;28;20402;-67
2020/12/18 04:14:36;;;;;;;5.40;4.93;;;10.30;95.10;;;;;;5009731;28;20532;-67
2020/12/18 04:17:03;;;;;;;4.50;4.20;;;10.30;94.90;;;;;;5011984;28;20437;-67
2020/12/18 04:19:29;;;;;;;5.27;4.53;;;10.30;95.10;;;;;;5009778;28;20410;-67
2020/12/18 04:21:56;;;;;;;4.87;4.47;;;10.20;95.10;;;;;;5014308;28;20944;-68
2020/12/18 04:24:21;;;;;;;4.97;4.57;;;10.10;94.90;;;;;;5014485;28;20403;-68
2020/12/18 04:26:47;;;;;;;5.97;5.13;;;10.00;94.80;;;;;;5015460;28;20406;-67
2020/12/18 04:29:13;;;;;;;5.27;4.87;;;10.00;95.50;;;;;;5015546;28;20218;-68
2020/12/18 04:31:39;;;;;;;4.87;4.43;;;9.90;96.10;;;;;;5013365;28;20757;-67
2020/12/18 04:34:05;;;;;;;4.80;4.40;;;9.90;96.20;;;;;;5014001;28;20461;-67
2020/12/18 04:36:31;;;;;;;4.93;4.43;;;9.90;97.00;;;;;;5014626;28;20183;-67
2020/12/18 04:38:57;;;;;;;5.50;4.90;;;9.90;97.20;;;;;;5015085;28;20270;-67
2020/12/18 04:41:23;;;;;;;5.23;4.83;;;9.80;97.30;;;;;;5014445;28;20612;-68
2020/12/18 04:43:49;;;;;;;5.60;5.20;;;9.80;96.60;;;;;;5014363;28;20258;-67
2020/12/18 04:46:17;;;;;;;5.70;5.20;;;9.70;96.50;;;;;;5014960;28;20496;-67
2020/12/18 04:48:46;;;;;;;5.97;5.30;;;9.70;96.50;;;;;;5015665;28;20950;-67
2020/12/18 04:51:25;;;;;;;6.00;5.40;;;9.70;96.50;;;;;;5015372;28;20462;-67
2020/12/18 04:53:53;;;;;;;5.43;4.87;;;9.60;96.60;;;;;;5015479;28;20929;-67
2020/12/18 04:56:26;;;;;;;6.47;4.90;;;9.60;97.70;;;;;;5014792;28;20398;-67
2020/12/18 04:58:54;;;;;;;7.37;5.20;;;9.60;98.50;;;;;;5015539;28;20421;-67
2020/12/18 05:01:23;;;;;;;5.37;4.87;;;9.70;98.50;;;;;;5014719;28;20414;-67
2020/12/18 05:03:50;;;;;;;4.87;4.47;;;9.70;98.40;;;;;;5015489;28;20418;-69
2020/12/18 05:06:16;;;;;;;5.50;5.00;;;9.60;98.60;;;;;;5023147;28;20424;-69
2020/12/18 05:08:43;;;;;;;7.33;5.20;;;9.70;98.70;;;;;;5033830;28;20521;-67
2020/12/18 05:11:25;;;;;;;5.33;4.83;;;9.70;98.60;;;;;;5034497;28;20487;-67
2020/12/18 05:13:53;;;;;;;6.00;5.40;;;9.70;98.50;;;;;;5028096;28;20429;-67
2020/12/18 05:16:23;;;;;;;6.27;5.67;;;9.70;98.50;;;;;;5012843;28;20461;-68
2020/12/18 05:18:49;;;;;;;5.60;5.20;;;9.70;98.70;;;;;;5026084;28;20818;-67
2020/12/18 05:21:16;;;;;;;5.70;5.17;;;9.70;98.30;;;;;;5034206;28;20411;-67
2020/12/18 05:23:43;;;;;;;7.00;5.00;;;9.80;98.00;;;;;;5033479;28;20424;-68
2020/12/18 05:26:10;;;;;;;5.60;5.10;;;9.70;97.60;;;;;;5034284;28;20731;-67
2020/12/18 05:28:49;;;;;;;5.53;5.03;;;9.70;97.60;;;;;;5033422;28;20461;-67
2020/12/18 05:31:17;;;;;;;8.40;5.70;;;9.70;97.70;;;;;;5033693;28;20808;-67
2020/12/18 05:33:46;;;;;;;4.80;4.30;;;9.70;97.50;;;;;;5026536;28;20468;-67
2020/12/18 05:36:12;;;;;;;6.97;4.40;;;9.70;97.30;;;;;;5019887;28;20516;-67
2020/12/18 05:38:39;;;;;;;5.67;5.20;;;9.60;97.40;;;;;;5012494;28;20438;-67
2020/12/18 05:41:06;;;;;;;6.73;5.00;;;9.60;97.20;;;;;;5014372;28;20413;-67
2020/12/18 05:43:36;;;;;;;6.87;6.17;;;9.60;97.40;;;;;;5018467;28;20422;-67
2020/12/18 05:46:22;;;;;;;4.87;4.10;;;9.50;97.40;;;;;;5013514;28;20418;-67
2020/12/18 05:49:09;;;;;;;5.13;4.53;;;9.50;98.20;;;;;;5013495;28;20426;-67
2020/12/18 05:51:42;;;;;;;6.73;6.23;;;9.50;98.60;;;;;;5011997;28;20458;-67
2020/12/18 05:54:10;;;;;;;5.13;4.73;;;9.50;98.90;;;;;;5013830;28;20433;-68
2020/12/18 05:56:37;;;;;;;5.23;4.73;;;9.60;98.80;;;;;;5012943;28;20422;-67
2020/12/18 05:59:10;;;;;;;5.40;4.87;;;9.60;98.40;;;;;;5013843;28;20402;-67
2020/12/18 06:01:41;;;;;;;7.50;5.00;;;9.60;98.70;;;;;;5001426;28;20522;-67
2020/12/18 06:04:14;;;;;;;7.47;5.90;;;9.60;98.80;;;;;;5002329;28;20487;-67
2020/12/18 06:06:45;;;;;;;7.50;6.43;;;9.70;98.80;;;;;;5012623;28;20418;-67
2020/12/18 06:09:12;;;;;;;6.80;6.10;;;9.60;98.30;;;;;;5019838;28;20457;-67
2020/12/18 06:11:38;;;;;;;6.30;5.73;;;9.70;98.00;;;;;;5032217;28;20958;-67
2020/12/18 06:14:06;;;;;;;4.47;4.07;;;9.60;98.20;;;;;;5017106;28;20512;-69
2020/12/18 06:16:42;;;;;;;5.70;4.30;;;9.60;98.50;;;;;;5012564;28;20273;-69
2020/12/18 06:19:09;;;;;;;5.30;4.90;;;9.60;99.00;;;;;;5013042;28;20422;-67
2020/12/18 06:21:35;;;;;;;5.83;3.87;;;9.70;99.10;;;;;;5011943;28;20423;-67
2020/12/18 06:24:03;;;;;;;5.40;4.67;;;9.70;99.00;;;;;;4999788;28;20419;-67
2020/12/18 06:26:29;;;;;;;3.63;3.30;;;9.70;99.00;;;;;;5010173;28;20468;-67
2020/12/18 06:29:05;;;;;;;3.50;3.20;;;9.80;99.20;;;;;;5013147;28;20434;-67
2020/12/18 06:31:33;;;;;;;4.27;3.87;;;9.80;99.20;;;;;;5012120;28;20413;-69
2020/12/18 06:34:02;;;;;;;4.10;3.30;;;9.80;99.20;;;;;;5029657;28;20457;-69
2020/12/18 06:36:53;;;;;;;4.23;3.50;;;9.80;99.10;;;;;;5032607;28;20459;-68
2020/12/18 06:39:22;;;;;;;4.70;4.30;;;9.80;99.00;;;;;;5018209;28;20417;-69
2020/12/18 06:41:48;;;;;;;4.57;3.67;;;9.90;99.10;;;;;;5013336;28;20865;-69
2020/12/18 06:44:33;;;;;;;4.30;3.90;;;10.00;98.50;;;;;;5012581;28;20553;-69
2020/12/18 06:47:28;;;;;;;4.97;3.33;;;10.00;98.30;;;;;;5013355;28;20418;-68
2020/12/18 06:50:00;;;;;;;7.37;4.30;;;9.90;98.70;;;;;;5012627;28;20452;-69
2020/12/18 06:52:44;;;;;;;4.97;4.57;;;10.00;98.30;;;;;;5024364;28;20785;-70
2020/12/18 06:55:12;;;;;;;5.47;4.10;;;10.00;98.30;;;;;;5015819;28;20417;-69
2020/12/18 06:57:39;;;;;;;7.20;4.00;;;10.00;98.30;;;;;;5016886;28;20418;-69
2020/12/18 07:00:23;;;;;;;5.70;4.17;;;10.00;98.30;;;;;;5020332;28;20492;-68
2020/12/18 07:02:49;;;;;;;6.23;4.80;;;10.00;98.30;;;;;;5003604;28;20431;-69
2020/12/18 07:05:33;;;;;;;6.17;4.10;;;10.10;98.40;;;;;;5023277;28;20448;-69
2020/12/18 07:08:07;;;;;;;4.30;4.00;;;10.10;98.10;;;;;;5010438;28;20426;-69
2020/12/18 07:10:40;;;;;;;4.40;3.97;;;10.10;97.90;;;;;;5007870;28;20449;-69
2020/12/18 07:13:08;;;;;;;7.13;3.80;;;10.10;98.10;;;;;;5014823;28;20960;-69
2020/12/18 07:15:43;;;;;;;5.00;3.77;;;10.10;98.00;;;;;;5012478;28;20418;-69
2020/12/18 07:18:28;;;;;;;5.40;3.97;;;10.10;98.20;;;;;;5012810;28;20417;-68
2020/12/18 07:20:59;;;;;;;4.70;4.30;;;9.90;98.90;;;;;;5012580;28;20785;-69
2020/12/18 07:23:27;;;;;;;4.50;4.07;;;9.90;99.30;;;;;;5011903;28;20427;-70
2020/12/18 07:25:54;;;;;;;4.33;4.03;;;9.80;99.30;;;;;;5012449;28;20489;-69
2020/12/18 07:28:21;;;;;;;4.60;4.20;;;9.80;99.40;;;;;;5012144;28;20461;-69
2020/12/18 07:30:48;;;;;;;4.70;3.90;;;9.60;99.70;;;;;;5011582;28;20481;-69
2020/12/18 07:33:15;;;;;;;4.67;3.70;;;9.70;99.90;;;;;;5012150;28;20454;-69
2020/12/18 07:35:44;;;;;;;4.70;4.20;;;9.80;99.70;;;;;;5011524;28;20797;-68
2020/12/18 07:38:16;;;;;;;4.30;3.93;;;9.50;99.80;;;;;;5015343;28;20493;-69
2020/12/18 07:40:42;;;;;;;4.60;4.30;;;9.40;99.90;;;;;;5023179;28;20521;-69
2020/12/18 07:43:10;;;;;;;5.87;4.40;;;9.50;99.90;;;;;;5012069;28;20812;-68
2020/12/18 07:45:47;;;;;;;4.47;3.97;;;9.60;99.90;;;;;;5013925;28;20798;-69
2020/12/18 07:48:15;;;;;;;5.00;4.17;;;9.40;99.90;;;;;;5016680;28;20409;-69
2020/12/18 07:50:58;;;;;;;4.07;3.77;;;9.40;99.90;;;;;;5013778;28;20518;-69
2020/12/18 07:53:24;;;;;;;7.07;4.10;;;9.50;99.90;;;;;;5031196;28;20503;-70
2020/12/18 07:56:25;;;;;;;7.43;3.90;;;9.50;99.90;;;;;;5032782;28;20398;-69
2020/12/18 07:58:53;;;;;;;4.70;3.80;;;9.40;99.90;;;;;;4955940;29;20432;-69
2020/12/18 08:01:23;;;;;;;6.50;4.50;;;9.40;99.90;;;;;;5008953;28;20475;-69
2020/12/18 08:03:57;;;;;;;6.87;4.20;;;9.50;99.90;;;;;;5036426;28;20423;-68
2020/12/18 08:06:28;;;;;;;10.00;5.33;;;9.50;99.90;;;;;;5035631;28;20480;-70
2020/12/18 08:09:00;;;;;;;5.13;3.93;;;9.70;99.90;;;;;;5036080;28;20753;-69
2020/12/18 08:11:31;;;;;;;6.30;3.70;;;9.70;99.90;;;;;;5030340;28;20426;-69
2020/12/18 08:13:59;;;;;;;4.33;4.03;;;9.70;99.90;;;;;;5016125;28;20837;-69
2020/12/18 08:16:29;;;;;;;4.40;4.03;;;9.80;99.90;;;;;;5015531;28;20440;-69
2020/12/18 08:19:09;;;;;;;3.77;3.47;;;9.90;99.90;;;;;;5017104;28;20918;-69
2020/12/18 08:21:45;;;;;;;4.37;3.97;;;9.80;99.90;;;;;;5015348;28;20488;-69
2020/12/18 08:24:20;;;;;;;4.00;3.67;;;9.80;99.90;;;;;;5016304;28;20413;-68
2020/12/18 08:27:05;;;;;;;4.17;3.40;;;9.80;99.90;;;;;;5015204;28;20890;-69
2020/12/18 08:29:32;;;;;;;5.77;3.93;;;9.80;99.90;;;;;;5029325;28;20507;-69
2020/12/18 08:32:03;;;;;;;4.40;3.77;;;9.90;99.90;;;;;;5019486;28;20832;-68
2020/12/18 08:34:32;;;;;;;4.07;3.77;;;10.00;99.60;;;;;;5015166;28;20467;-69
2020/12/18 08:36:58;;;;;;;4.23;3.83;;;10.10;99.30;;;;;;5015729;28;20762;-69
2020/12/18 08:39:32;;;;;;;3.83;3.53;;;10.10;99.20;;;;;;5013915;28;20402;-69
2020/12/18 08:41:58;;;;;;;4.13;3.50;;;10.20;99.00;;;;;;5031568;28;20413;-69
2020/12/18 08:44:35;;;;;;;5.20;3.90;;;10.20;98.90;;;;;;5025347;28;20422;-69
2020/12/18 08:47:01;;;;;;;4.10;3.70;;;10.10;99.10;;;;;;5015596;28;20165;-69
2020/12/18 08:49:28;;;;;;;3.50;3.20;;;10.10;99.60;;;;;;5014830;28;20505;-69
2020/12/18 08:51:56;;;;;;;4.47;3.80;;;10.20;99.20;;;;;;5015596;28;20254;-69
2020/12/18 08:54:25;;;;;;;4.03;3.60;;;10.30;99.20;;;;;;4995674;28;20416;-70
2020/12/18 08:57:22;;;;;;;4.00;3.60;;;10.60;98.90;;;;;;5004626;28;20432;-69
2020/12/18 09:00:16;;;;;;;3.73;3.40;;;11.30;97.90;;;;;;5025065;28;20432;-69
2020/12/18 09:02:43;;;;;;;3.70;3.40;;;11.90;95.80;;;;;;5009300;28;20451;-69
2020/12/18 09:05:21;;;;;;;3.60;3.30;;;12.50;94.40;;;;;;5023147;28;20421;-69
2020/12/18 09:07:56;;;;;;;4.00;3.63;;;12.80;93.90;;;;;;5011002;28;20461;-69
2020/12/18 09:10:39;;;;;;;3.63;3.43;;;13.20;93.20;;;;;;5014680;28;20475;-69
2020/12/18 09:13:16;;;;;;;6.47;3.43;;;14.00;92.30;;;;;;5015016;28;20767;-69
2020/12/18 09:15:47;;;;;;;4.03;3.67;;;14.10;90.60;;;;;;4994595;28;20403;-69
2020/12/18 09:18:20;;;;;;;4.03;3.63;;;14.30;90.20;;;;;;4995558;28;20411;-69
2020/12/18 09:20:46;;;;;;;3.80;3.50;;;14.30;90.00;;;;;;4994850;28;20420;-69
2020/12/18 09:23:16;;;;;;;5.00;3.50;;;14.60;90.00;;;;;;4995523;28;20428;-68
2020/12/18 09:25:44;;;;;;;3.90;3.17;;;14.90;89.10;;;;;;4994721;28;20742;-69
2020/12/18 09:28:12;;;;;;;4.13;3.77;;;15.30;86.60;;;;;;4995237;28;20457;-69
2020/12/18 09:30:38;;;;;;;4.10;3.53;;;15.50;85.70;;;;;;4994498;28;20462;-68
2020/12/18 09:33:15;;;;;;;3.30;3.07;;;15.90;84.30;;;;;;4994637;28;20869;-69
2020/12/18 09:35:42;;;;;;;4.47;4.07;;;16.00;83.00;;;;;;4994362;28;20771;-69
2020/12/18 09:38:08;;;;;;;4.77;3.40;;;16.00;82.00;;;;;;4995091;28;20406;-69
2020/12/18 09:40:34;;;;;;;6.53;3.83;;;15.60;84.00;;;;;;4994101;28;20425;-69
2020/12/18 09:43:00;;;;;;;3.90;3.70;;;15.40;84.00;;;;;;4994921;28;20766;-69
2020/12/18 09:45:26;;;;;;;5.40;3.50;;;15.50;83.40;;;;;;5011491;28;20197;-69
2020/12/18 09:47:51;;;;;;;4.57;4.13;;;15.20;84.40;;;;;;5014478;28;20175;-68
2020/12/18 09:50:17;;;;;;;3.80;3.57;;;15.40;84.80;;;;;;5014325;28;20271;-68
2020/12/18 09:52:43;;;;;;;3.40;3.20;;;15.80;83.30;;;;;;5013854;28;20171;-70
2020/12/18 09:55:09;;;;;;;4.27;3.70;;;16.30;81.40;;;;;;5014300;28;20183;-69
2020/12/18 09:57:34;;;;;;;3.70;3.43;;;16.70;79.40;;;;;;5013550;28;20181;-69
2020/12/18 10:00:06;;;;;;;4.57;3.40;;;17.40;78.00;;;;;;5014205;28;20282;-69
2020/12/18 10:02:32;;;;;;;3.90;3.60;;;18.10;73.80;;;;;;5013563;28;20272;-69
2020/12/18 10:04:58;;;;;;;3.53;3.40;;;18.30;73.30;;;;;;5014168;28;20403;-69
2020/12/18 10:07:24;;;;;;;5.17;3.67;;;18.90;70.40;;;;;;5012083;28;20418;-70
2020/12/18 10:09:49;;;;;;;4.50;4.20;;;18.40;71.40;;;;;;5013876;28;20238;-69
2020/12/18 10:12:15;;;;;;;4.40;4.10;;;18.80;71.50;;;;;;5013698;28;20339;-69
2020/12/18 10:14:41;;;;;;;5.10;4.33;;;19.80;68.50;;;;;;5012930;28;20175;-69
2020/12/18 10:17:07;;;;;;;4.37;4.17;;;19.90;65.20;;;;;;5014191;28;20179;-69
2020/12/18 10:19:34;;;;;;;4.50;4.30;;;20.20;64.90;;;;;;5011969;28;20183;-69
2020/12/18 10:22:00;;;;;;;5.40;4.90;;;20.20;64.00;;;;;;5013581;28;20430;-69
2020/12/18 10:24:25;;;;;;;5.37;4.97;;;20.50;64.20;;;;;;5013124;28;20458;-69
2020/12/18 10:26:51;;;;;;;3.63;3.53;;;20.40;62.70;;;;;;5013672;28;20278;-69
2020/12/18 10:29:17;;;;;;;4.40;4.07;;;19.80;63.20;;;;;;5013686;28;20207;-69
2020/12/18 10:31:42;;;;;;;3.83;3.50;;;19.40;64.80;;;;;;5013007;28;20524;-69
2020/12/18 10:34:08;;;;;;;4.17;3.87;;;18.80;64.50;;;;;;5013536;28;20234;-69
2020/12/18 10:36:34;;;;;;;3.80;3.50;;;18.30;67.40;;;;;;5012977;28;20238;-69
2020/12/18 10:38:59;;;;;;;3.90;3.70;;;18.40;68.00;;;;;;5013472;28;20175;-69
2020/12/18 10:41:25;;;;;;;3.87;3.67;;;18.50;68.00;;;;;;5012786;28;20187;-70
2020/12/18 10:43:51;;;;;;;4.40;4.10;;;18.50;67.90;;;;;;5012878;28;20179;-69
2020/12/18 10:46:17;;;;;;;4.40;4.20;;;18.70;66.80;;;;;;5013001;28;20691;-69
2020/12/18 10:48:42;;;;;;;4.13;3.93;;;18.70;66.90;;;;;;5012654;28;20376;-69
2020/12/18 10:51:08;;;;;;;4.60;4.30;;;18.80;66.50;;;;;;5012620;28;20202;-69
2020/12/18 10:53:34;;;;;;;4.10;3.80;;;18.40;65.90;;;;;;5011636;28;20183;-68
2020/12/18 10:56:01;;;;;;;5.10;4.10;;;18.40;68.00;;;;;;5016307;28;20178;-69
2020/12/18 10:58:26;;;;;;;4.77;4.47;;;18.50;67.50;;;;;;5012017;28;20557;-69
2020/12/18 11:00:52;;;;;;;3.70;3.50;;;18.60;67.60;;;;;;5013015;28;20429;-69
2020/12/18 11:03:18;;;;;;;3.97;3.77;;;18.60;67.40;;;;;;5011800;28;20262;-68
2020/12/18 11:05:43;;;;;;;3.97;3.77;;;18.70;67.30;;;;;;5011221;28;20255;-68
2020/12/18 11:08:09;;;;;;;3.77;3.57;;;18.90;66.30;;;;;;5011750;28;20229;-71
2020/12/18 11:10:36;;;;;;;3.80;3.50;;;18.90;65.00;;;;;;5012386;28;20657;-68
2020/12/18 11:13:02;;;;;;;4.00;3.70;;;18.70;67.20;;;;;;5010741;28;20530;-68
2020/12/18 11:15:27;;;;;;;4.00;3.80;;;18.70;66.10;;;;;;5009528;28;20473;-70
2020/12/18 11:17:53;;;;;;;3.73;3.53;;;18.80;66.10;;;;;;5012206;28;20514;-69
2020/12/18 11:20:19;;;;;;;3.77;3.47;;;19.00;66.10;;;;;;5010495;28;20183;-68
2020/12/18 11:22:45;;;;;;;3.70;3.50;;;19.20;65.80;;;;;;5009902;28;20215;-69
2020/12/18 11:25:10;;;;;;;4.20;4.00;;;19.30;64.70;;;;;;5011021;28;20206;-69
2020/12/18 11:27:36;;;;;;;4.13;3.93;;;18.90;65.60;;;;;;5011156;28;20426;-69
2020/12/18 11:30:03;;;;;;;4.33;4.10;;;19.00;65.80;;;;;;5011655;28;20303;-69
2020/12/18 11:32:29;;;;;;;3.87;3.67;;;19.10;64.80;;;;;;5011320;28;20269;-68
2020/12/18 11:34:55;;;;;;;3.70;3.60;;;19.20;64.90;;;;;;5011094;28;20876;-68
2020/12/18 11:37:21;;;;;;;3.60;3.30;;;19.30;64.50;;;;;;5012422;28;20206;-68
2020/12/18 11:39:47;;;;;;;3.90;3.67;;;19.40;63.80;;;;;;5011442;28;20569;-68
2020/12/18 11:42:13;;;;;;;4.40;4.00;;;19.20;63.80;;;;;;5024654;28;20491;-68
2020/12/18 11:44:39;;;;;;;3.93;3.73;;;19.10;65.70;;;;;;5011250;28;20179;-69
2020/12/18 11:47:05;;;;;;;4.13;3.60;;;19.20;64.70;;;;;;5011783;28;20421;-73
2020/12/18 11:49:31;;;;;;;4.30;3.80;;;19.10;64.10;;;;;;5010441;28;20211;-68
2020/12/18 11:51:57;;;;;;;4.30;3.80;;;19.10;64.90;;;;;;5012120;28;20197;-68
2020/12/18 11:54:22;;;;;;;4.07;3.87;;;19.10;64.70;;;;;;5012377;28;20183;-68
2020/12/18 11:56:49;;;;;;;4.07;3.77;;;18.70;65.80;;;;;;5011527;28;20182;-69
2020/12/18 11:59:15;;;;;;;3.63;3.43;;;18.60;65.70;;;;;;5011337;28;20190;-70
2020/12/18 12:01:41;;;;;;;5.00;3.33;;;18.50;66.50;;;;;;5018769;28;20928;-69
2020/12/18 12:04:06;;;;;;;2.90;2.70;;;18.30;67.10;;;;;;5031529;28;20196;-69
2020/12/18 12:06:32;;;;;;;4.20;4.00;;;18.20;67.30;;;;;;5016555;28;20175;-69
2020/12/18 12:09:03;;;;;;;4.13;3.93;;;18.20;66.90;;;;;;5011675;28;20318;-69
2020/12/18 12:11:39;;;;;;;4.50;4.30;;;18.00;67.00;;;;;;5025302;28;20436;-69
2020/12/18 12:14:06;;;;;;;4.20;3.90;;;17.70;67.60;;;;;;5024842;28;20464;-69
2020/12/18 12:16:33;;;;;;;3.60;3.30;;;17.40;68.70;;;;;;5011213;28;20403;-68
2020/12/18 12:18:59;;;;;;;3.33;3.13;;;17.20;69.10;;;;;;5012015;28;20418;-68
2020/12/18 12:21:31;;;;;;;3.67;3.43;;;17.10;70.50;;;;;;5016717;28;20520;-70
2020/12/18 12:23:57;;;;;;;4.10;3.80;;;17.10;71.00;;;;;;5029775;28;20209;-68
2020/12/18 12:26:23;;;;;;;2.97;2.87;;;17.00;70.00;;;;;;5001454;28;20418;-69
2020/12/18 12:28:49;;;;;;;3.00;2.90;;;16.80;70.20;;;;;;5023116;28;20479;-68
2020/12/18 12:31:15;;;;;;;3.30;3.10;;;16.90;71.70;;;;;;5029716;28;20647;-68
2020/12/18 12:33:40;;;;;;;3.20;2.90;;;16.90;71.00;;;;;;5028362;28;20229;-68
2020/12/18 12:36:06;;;;;;;6.50;3.23;;;16.80;71.00;;;;;;5010013;28;20179;-68
2020/12/18 12:38:32;;;;;;;3.47;3.27;;;16.50;71.10;;;;;;5008915;28;20179;-68
2020/12/18 12:40:58;;;;;;;3.20;2.90;;;16.30;72.90;;;;;;5012097;28;20187;-68
2020/12/18 12:43:23;;;;;;;3.07;2.87;;;16.30;72.90;;;;;;5014699;28;20185;-70
2020/12/18 12:45:49;;;;;;;3.40;3.13;;;16.30;73.00;;;;;;5014470;28;20219;-68
2020/12/18 12:48:15;;;;;;;3.80;3.60;;;16.20;73.00;;;;;;5015127;28;20197;-69
2020/12/18 12:50:42;;;;;;;3.90;3.70;;;15.90;72.80;;;;;;5031350;28;20581;-71
2020/12/18 12:53:07;;;;;;;3.90;3.60;;;15.60;73.80;;;;;;5032424;28;20920;-70
2020/12/18 12:55:33;;;;;;;3.80;3.60;;;15.50;74.80;;;;;;5014239;28;20456;-69